createdAt,value
2022-08-05T00:02:11.327Z,1.73
2022-08-05T00:04:40.284Z,1.92
2022-08-05T00:07:27.019Z,1.65
2022-08-05T00:09:54.616Z,1.73
2022-08-05T00:12:21.543Z,2.15
2022-08-05T00:14:51.704Z,1.65
2022-08-05T00:17:20.213Z,1.60
2022-08-05T00:20:02.444Z,1.58
2022-08-05T00:22:30.179Z,1.60
2022-08-05T00:24:57.898Z,2.20
2022-08-05T00:27:35.806Z,1.95
2022-08-05T00:30:11.409Z,2.42
2022-08-05T00:35:08.451Z,3.25
2022-08-05T00:37:52.388Z,3.03
2022-08-05T00:40:28.252Z,2.85
2022-08-05T00:45:25.008Z,1.77
2022-08-05T00:48:06.996Z,2.00
2022-08-05T00:50:34.934Z,1.58
2022-08-05T00:53:02.659Z,1.90
2022-08-05T00:55:42.455Z,1.67
2022-08-05T00:58:11.358Z,2.25
2022-08-05T01:00:40.272Z,1.85
2022-08-05T01:03:09.294Z,1.52
2022-08-05T01:05:36.301Z,1.48
2022-08-05T01:08:42.277Z,1.48
2022-08-05T01:10:54.997Z,1.80
2022-08-05T01:13:58.982Z,1.95
2022-08-05T01:16:26.223Z,2.05
2022-08-05T01:19:00.795Z,1.70
2022-08-05T01:21:55.859Z,1.92
2022-08-05T01:24:41.283Z,1.85
2022-08-05T01:27:23.821Z,2.28
2022-08-05T01:29:56.488Z,1.77
2022-08-05T01:32:27.872Z,1.73
2022-08-05T01:34:58.674Z,1.63
2022-08-05T01:37:32.924Z,1.38
2022-08-05T01:40:07.357Z,1.60
2022-08-05T01:42:36.487Z,2.33
2022-08-05T01:45:08.376Z,1.50
2022-08-05T01:47:39.568Z,1.75
2022-08-05T01:50:15.322Z,2.92
2022-08-05T01:52:50.010Z,1.55
2022-08-05T01:55:20.471Z,1.80
2022-08-05T01:58:09.880Z,2.15
2022-08-05T02:00:39.636Z,1.42
2022-08-05T02:03:29.011Z,1.77
2022-08-05T02:06:03.384Z,1.75
2022-08-05T02:08:54.931Z,1.95
2022-08-05T02:11:33.503Z,1.73
2022-08-05T02:14:05.574Z,2.95
2022-08-05T02:16:44.706Z,1.98
2022-08-05T02:19:18.861Z,1.63
2022-08-05T02:21:52.587Z,1.90
2022-08-05T02:24:23.228Z,1.70
2022-08-05T02:26:53.792Z,1.75
2022-08-05T02:29:24.230Z,2.30
2022-08-05T02:32:23.888Z,2.00
2022-08-05T02:34:57.739Z,1.92
2022-08-05T02:37:25.140Z,1.60
2022-08-05T02:39:53.767Z,2.10
2022-08-05T02:42:25.748Z,1.92
2022-08-05T02:44:55.865Z,1.70
2022-08-05T02:47:25.827Z,2.03
2022-08-05T02:50:18.044Z,1.85
2022-08-05T02:52:46.745Z,1.70
2022-08-05T02:55:14.334Z,1.70
2022-08-05T02:58:10.788Z,1.98
2022-08-05T03:00:35.017Z,2.17
2022-08-05T03:03:10.344Z,1.70
2022-08-05T03:06:53.942Z,2.15
2022-08-05T03:08:27.039Z,1.90
2022-08-05T03:11:02.350Z,1.80
2022-08-05T03:13:51.547Z,1.95
2022-08-05T03:16:29.787Z,1.77
2022-08-05T03:19:00.165Z,2.83
2022-08-05T03:21:28.677Z,2.00
2022-08-05T03:23:56.893Z,1.55
2022-08-05T03:28:59.630Z,1.80
2022-08-05T03:31:56.009Z,3.15
2022-08-05T03:34:14.831Z,1.75
2022-08-05T03:36:41.714Z,1.83
2022-08-05T03:39:12.991Z,2.78
2022-08-05T03:41:47.062Z,1.50
2022-08-05T03:44:19.877Z,1.90
2022-08-05T03:46:46.898Z,2.80
2022-08-05T03:49:17.183Z,2.05
2022-08-05T03:52:38.456Z,1.65
2022-08-05T03:55:52.226Z,1.77
2022-08-05T03:57:42.308Z,1.45
2022-08-05T04:00:15.674Z,2.45
2022-08-05T04:02:57.685Z,2.22
2022-08-05T04:05:33.215Z,2.28
2022-08-05T04:08:02.170Z,1.85
2022-08-05T04:10:37.162Z,2.35
2022-08-05T04:13:06.207Z,2.08
2022-08-05T04:15:36.310Z,2.85
2022-08-05T04:18:07.313Z,2.05
2022-08-05T04:20:37.553Z,2.55
2022-08-05T04:23:04.509Z,2.47
2022-08-05T04:25:57.496Z,2.55
2022-08-05T04:28:19.266Z,2.05
2022-08-05T04:30:46.452Z,3.00
2022-08-05T04:33:15.920Z,2.08
2022-08-05T04:36:15.776Z,3.08
2022-08-05T04:41:07.261Z,2.75
2022-08-05T04:43:34.327Z,2.40
2022-08-05T04:46:04.533Z,1.95
2022-08-05T04:48:32.243Z,2.53
2022-08-05T04:51:02.717Z,2.25
2022-08-05T04:53:38.637Z,2.53
2022-08-05T04:56:32.958Z,1.98
2022-08-05T04:58:53.401Z,2.45
2022-08-05T05:01:33.666Z,3.38
2022-08-05T05:04:06.762Z,2.42
2022-08-05T05:06:40.040Z,4.07
2022-08-05T05:09:14.145Z,2.28
2022-08-05T05:11:53.276Z,2.10
2022-08-05T05:14:27.990Z,2.17
2022-08-05T05:16:59.117Z,3.47
2022-08-05T05:19:27.424Z,2.17
2022-08-05T05:22:24.239Z,2.17
2022-08-05T05:27:25.307Z,2.58
2022-08-05T05:30:15.508Z,3.10
2022-08-05T05:32:55.482Z,2.90
2022-08-05T05:35:22.951Z,1.70
2022-08-05T05:38:00.140Z,2.55
2022-08-05T05:40:32.021Z,1.73
2022-08-05T05:42:59.640Z,1.92
2022-08-05T05:45:29.081Z,1.83
2022-08-05T05:48:05.327Z,1.92
2022-08-05T05:50:44.114Z,1.67
2022-08-05T05:53:22.032Z,2.90
2022-08-05T05:55:52.511Z,1.83
2022-08-05T05:58:30.380Z,2.13
2022-08-05T06:01:12.454Z,1.67
2022-08-05T06:04:00.732Z,2.08
2022-08-05T06:06:27.942Z,2.13
2022-08-05T06:09:03.896Z,2.05
2022-08-05T06:11:30.953Z,1.52
2022-08-05T06:13:58.141Z,1.65
2022-08-05T06:16:32.558Z,2.10
2022-08-05T06:19:05.803Z,1.88
2022-08-05T06:21:35.927Z,1.60
2022-08-05T06:24:12.345Z,3.20
2022-08-05T06:26:39.979Z,2.13
2022-08-05T06:29:43.007Z,2.05
2022-08-05T06:32:50.778Z,1.85
2022-08-05T06:36:02.913Z,1.77
2022-08-05T06:38:11.085Z,1.52
2022-08-05T06:40:44.482Z,2.13
2022-08-05T06:43:58.516Z,1.65
2022-08-05T06:46:06.528Z,1.42
2022-08-05T06:48:56.318Z,1.67
2022-08-05T06:51:30.113Z,1.70
2022-08-05T06:53:58.758Z,1.95
2022-08-05T06:56:27.038Z,1.95
2022-08-05T06:58:54.037Z,2.08
2022-08-05T07:01:21.245Z,1.48
2022-08-05T07:06:20.612Z,1.88
2022-08-05T07:08:52.076Z,1.95
2022-08-05T07:11:22.192Z,1.25
2022-08-05T07:14:19.975Z,1.42
2022-08-05T07:18:01.693Z,2.45
2022-08-05T07:22:30.230Z,1.88
2022-08-05T07:25:23.831Z,1.63
2022-08-05T07:27:57.542Z,1.67
2022-08-05T07:30:32.799Z,1.15
2022-08-05T07:33:01.010Z,1.50
2022-08-05T07:36:04.525Z,1.20
2022-08-05T07:38:32.780Z,1.30
2022-08-05T07:41:16.492Z,1.45
2022-08-05T07:46:25.156Z,1.33
2022-08-05T07:49:03.126Z,1.27
2022-08-05T07:51:36.739Z,1.40
2022-08-05T07:54:05.439Z,1.20
2022-08-05T07:57:00.161Z,1.40
2022-08-05T07:59:21.905Z,1.38
2022-08-05T08:01:58.040Z,1.63
2022-08-05T08:04:38.012Z,1.60
2022-08-05T08:07:07.085Z,1.75
2022-08-05T08:09:34.332Z,1.65
2022-08-05T08:12:08.309Z,1.35
2022-08-05T08:14:41.772Z,1.38
2022-08-05T08:17:15.846Z,1.40
2022-08-05T08:20:21.495Z,1.38
2022-08-05T08:22:33.434Z,1.55
2022-08-05T08:25:02.802Z,1.50
2022-08-05T08:27:37.981Z,1.52
2022-08-05T08:30:29.858Z,1.27
2022-08-05T08:33:02.529Z,1.92
2022-08-05T08:35:34.858Z,1.52
2022-08-05T08:38:16.278Z,1.63
2022-08-05T08:40:51.440Z,1.70
2022-08-05T08:44:56.440Z,1.88
2022-08-05T08:46:10.087Z,1.60
2022-08-05T08:49:07.777Z,2.00
2022-08-05T08:52:02.873Z,1.45
2022-08-05T08:54:30.196Z,1.63
2022-08-05T08:56:58.906Z,1.63
2022-08-05T08:59:27.597Z,1.85
2022-08-05T09:02:01.070Z,1.92
2022-08-05T09:04:30.304Z,2.15
2022-08-05T09:06:57.748Z,1.65
2022-08-05T09:09:34.635Z,1.55
2022-08-05T09:12:19.875Z,2.05
2022-08-05T09:14:56.576Z,2.00
2022-08-05T09:17:43.158Z,2.08
2022-08-05T09:20:36.179Z,1.73
2022-08-05T09:23:18.821Z,2.78
2022-08-05T09:26:07.850Z,2.03
2022-08-05T09:28:38.211Z,1.83
2022-08-05T09:31:43.748Z,2.28
2022-08-05T09:34:01.031Z,1.92
2022-08-05T09:36:54.527Z,2.05
2022-08-05T09:39:41.990Z,2.08
2022-08-05T09:42:17.393Z,1.80
2022-08-05T09:44:51.564Z,2.72
2022-08-05T09:47:20.847Z,1.48
2022-08-05T09:50:01.281Z,1.83
2022-08-05T09:52:31.556Z,2.15
2022-08-05T09:55:06.361Z,1.98
2022-08-05T09:57:49.430Z,1.80
2022-08-05T10:00:26.435Z,2.10
2022-08-05T10:02:54.864Z,2.40
2022-08-05T10:05:29.230Z,2.03
2022-08-05T10:08:34.583Z,1.98
2022-08-05T10:10:54.288Z,2.45
2022-08-05T10:13:45.713Z,2.53
2022-08-05T10:16:30.928Z,2.15
2022-08-05T10:18:59.376Z,2.33
2022-08-05T10:24:07.551Z,2.00
2022-08-05T10:26:37.831Z,2.00
2022-08-05T10:29:23.728Z,2.13
2022-08-05T10:32:59.913Z,2.03
2022-08-05T10:34:57.542Z,2.13
2022-08-05T10:37:40.302Z,2.30
2022-08-05T10:40:20.051Z,2.92
2022-08-05T10:43:02.672Z,1.85
2022-08-05T10:45:40.261Z,2.10
2022-08-05T10:48:52.762Z,2.20
2022-08-05T10:51:28.500Z,1.98
2022-08-05T10:54:00.747Z,2.53
2022-08-05T10:56:30.274Z,1.95
2022-08-05T10:59:12.830Z,1.80
2022-08-05T11:02:14.179Z,1.80
2022-08-05T11:07:15.422Z,2.67
2022-08-05T11:09:46.701Z,1.80
2022-08-05T11:12:45.416Z,1.80
2022-08-05T11:15:21.147Z,1.70
2022-08-05T11:18:00.348Z,2.08
2022-08-05T11:20:46.210Z,1.95
2022-08-05T11:23:33.657Z,1.95
2022-08-05T11:26:28.207Z,1.73
2022-08-05T11:29:12.311Z,1.70
2022-08-05T11:31:56.231Z,2.15
2022-08-05T11:34:47.459Z,2.10
2022-08-05T11:41:14.032Z,2.17
2022-08-05T11:44:06.214Z,1.92
2022-08-05T11:46:36.099Z,1.63
2022-08-05T11:49:13.370Z,1.85
2022-08-05T11:51:49.541Z,2.38
2022-08-05T11:54:33.355Z,1.42
2022-08-05T11:57:08.234Z,1.95
2022-08-05T11:59:51.314Z,1.88
2022-08-05T12:02:29.734Z,1.58
2022-08-05T12:05:01.487Z,1.80
2022-08-05T12:08:03.301Z,2.03
2022-08-05T12:10:43.589Z,1.95
2022-08-05T12:13:15.482Z,1.75
2022-08-05T12:15:43.987Z,1.90
2022-08-05T12:18:12.174Z,1.65
2022-08-05T12:20:39.431Z,1.67
2022-08-05T12:23:09.937Z,1.80
2022-08-05T12:25:49.766Z,1.65
2022-08-05T12:28:30.957Z,1.92
2022-08-05T12:31:02.110Z,1.75
2022-08-05T12:33:36.606Z,1.80
2022-08-05T12:36:08.627Z,2.08
2022-08-05T12:38:41.556Z,1.48
2022-08-05T12:41:13.499Z,1.77
2022-08-05T12:43:55.166Z,1.65
2022-08-05T12:46:28.971Z,1.73
2022-08-05T12:49:13.210Z,2.10
2022-08-05T12:52:10.672Z,2.20
2022-08-05T12:54:35.712Z,2.05
2022-08-05T12:57:09.723Z,1.90
2022-08-05T12:59:46.723Z,1.92
2022-08-05T13:02:32.010Z,1.80
2022-08-05T13:04:58.916Z,1.67
2022-08-05T13:07:55.021Z,1.73
2022-08-05T13:10:20.234Z,2.22
2022-08-05T13:12:57.175Z,2.50
2022-08-05T13:15:35.843Z,1.75
2022-08-05T13:18:09.166Z,1.83
2022-08-05T13:20:40.540Z,1.90
2022-08-05T13:23:07.641Z,1.48
2022-08-05T13:25:52.267Z,2.03
2022-08-05T13:28:22.598Z,1.90
2022-08-05T13:30:53.199Z,1.55
2022-08-05T13:34:22.241Z,1.95
2022-08-05T13:36:09.732Z,2.20
2022-08-05T13:38:36.537Z,1.75
2022-08-05T13:41:10.866Z,2.10
2022-08-05T13:43:44.466Z,2.17
2022-08-05T13:46:13.003Z,1.98
2022-08-05T13:48:57.439Z,1.75
2022-08-05T13:51:29.775Z,1.80
2022-08-05T13:56:45.085Z,2.03
2022-08-05T13:59:27.226Z,1.95
2022-08-05T14:01:56.559Z,2.20
2022-08-05T14:04:49.625Z,1.85
2022-08-05T14:08:00.327Z,1.75
2022-08-05T14:10:19.074Z,1.40
2022-08-05T14:12:57.221Z,1.35
2022-08-05T14:16:08.192Z,1.55
2022-08-05T14:20:47.255Z,2.38
2022-08-05T14:23:14.761Z,1.92
2022-08-05T14:25:53.989Z,1.90
2022-08-05T14:28:26.822Z,2.03
2022-08-05T14:30:54.352Z,2.08
2022-08-05T14:33:22.632Z,2.42
2022-08-05T14:35:51.826Z,2.30
2022-08-05T14:38:31.713Z,2.47
2022-08-05T14:41:00.513Z,1.30
2022-08-05T14:43:59.272Z,2.28
2022-08-05T14:46:15.525Z,2.03
2022-08-05T14:48:42.371Z,2.20
2022-08-05T14:51:09.553Z,1.98
2022-08-05T14:53:44.107Z,2.17
2022-08-05T14:56:11.520Z,2.15
2022-08-05T14:58:47.813Z,2.30
2022-08-05T15:01:24.496Z,1.77
2022-08-05T15:04:11.374Z,1.98
2022-08-05T15:06:38.370Z,2.08
2022-08-05T15:09:07.405Z,2.28
2022-08-05T15:11:51.751Z,2.40
2022-08-05T15:14:34.854Z,2.20
2022-08-05T15:17:04.600Z,2.40
2022-08-05T15:19:31.638Z,2.45
2022-08-05T15:21:59.935Z,2.40
2022-08-05T15:24:27.473Z,2.53
2022-08-05T15:26:55.984Z,2.55
2022-08-05T15:29:29.749Z,2.15
2022-08-05T15:31:57.433Z,2.00
2022-08-05T15:34:32.307Z,2.20
2022-08-05T15:37:03.492Z,2.40
2022-08-05T15:41:00.016Z,2.55
2022-08-05T15:42:50.035Z,2.20
2022-08-05T15:45:11.360Z,2.28
2022-08-05T15:47:38.607Z,2.38
2022-08-05T15:50:07.251Z,2.17
2022-08-05T15:52:53.738Z,2.45
2022-08-05T15:55:24.533Z,1.98
2022-08-05T15:57:53.671Z,1.90
2022-08-05T16:00:32.514Z,1.98
2022-08-05T16:03:11.970Z,1.95
2022-08-05T16:05:41.736Z,2.08
2022-08-05T16:08:11.436Z,1.88
2022-08-05T16:10:42.915Z,2.15
2022-08-05T16:13:10.036Z,1.70
2022-08-05T16:15:39.232Z,2.38
2022-08-05T16:18:09.059Z,1.92
2022-08-05T16:20:36.105Z,2.00
2022-08-05T16:23:03.693Z,2.45
2022-08-05T16:25:33.879Z,2.05
2022-08-05T16:28:06.079Z,2.20
2022-08-05T16:30:34.264Z,2.20
2022-08-05T16:33:04.554Z,2.28
2022-08-05T16:38:03.708Z,2.13
2022-08-05T16:40:47.734Z,2.55
2022-08-05T16:43:25.342Z,2.17
2022-08-05T16:46:04.177Z,2.40
2022-08-05T16:48:36.948Z,2.35
2022-08-05T16:51:09.082Z,2.58
2022-08-05T16:54:05.179Z,2.63
2022-08-05T16:56:25.635Z,2.60
2022-08-05T16:58:54.932Z,2.28
2022-08-05T17:01:22.169Z,2.50
2022-08-05T17:03:52.410Z,2.85
2022-08-05T17:06:19.747Z,1.95
2022-08-05T17:08:52.228Z,2.45
2022-08-05T17:11:23.711Z,2.08
2022-08-05T17:13:54.683Z,2.20
2022-08-05T17:16:36.208Z,2.08
2022-08-05T17:19:07.286Z,2.28
2022-08-05T17:21:36.327Z,2.13
2022-08-05T17:24:19.899Z,2.55
2022-08-05T17:26:50.952Z,2.05
2022-08-05T17:29:22.485Z,2.65
2022-08-05T17:31:59.699Z,2.55
2022-08-05T17:34:29.480Z,2.50
2022-08-05T17:36:56.997Z,2.33
2022-08-05T17:39:33.218Z,2.28
2022-08-05T17:42:18.568Z,2.38
2022-08-05T17:44:50.526Z,2.08
2022-08-05T17:47:21.741Z,2.17
2022-08-05T17:49:59.984Z,2.40
2022-08-05T17:52:31.611Z,2.10
2022-08-05T17:54:58.295Z,3.05
2022-08-05T17:57:25.154Z,2.08
2022-08-05T18:00:04.702Z,2.80
2022-08-05T18:02:32.601Z,2.20
2022-08-05T18:05:06.368Z,2.78
2022-08-05T18:07:41.994Z,2.20
2022-08-05T18:10:14.239Z,2.47
2022-08-05T18:12:47.594Z,2.67
2022-08-05T18:15:14.641Z,2.47
2022-08-05T18:18:01.554Z,2.33
2022-08-05T18:20:31.530Z,2.50
2022-08-05T18:23:08.720Z,2.40
2022-08-05T18:25:39.371Z,2.25
2022-08-05T18:28:06.936Z,2.95
2022-08-05T18:30:33.676Z,2.60
2022-08-05T18:33:01.047Z,3.00
2022-08-05T18:36:00.609Z,2.88
2022-08-05T18:38:25.963Z,3.03
2022-08-05T18:41:55.147Z,2.90
2022-08-05T18:43:42.768Z,2.90
2022-08-05T18:46:14.988Z,3.00
2022-08-05T18:48:42.148Z,3.58
2022-08-05T18:52:05.401Z,3.45
2022-08-05T18:54:15.725Z,3.20
2022-08-05T18:56:51.174Z,3.03
2022-08-05T18:59:42.873Z,2.72
2022-08-05T19:02:11.370Z,3.83
2022-08-05T19:05:02.641Z,4.05
2022-08-05T19:07:46.012Z,3.15
2022-08-05T19:10:13.258Z,3.42
2022-08-05T19:12:40.441Z,2.95
2022-08-05T19:15:24.956Z,2.78
2022-08-05T19:18:09.786Z,3.13
2022-08-05T19:20:41.322Z,3.38
2022-08-05T19:24:06.252Z,3.17
2022-08-05T19:26:01.795Z,3.50
2022-08-05T19:28:29.938Z,3.33
2022-08-05T19:30:57.996Z,3.60
2022-08-05T19:33:34.071Z,3.50
2022-08-05T19:36:03.131Z,3.28
2022-08-05T19:38:35.746Z,3.15
2022-08-05T19:41:02.990Z,2.10
2022-08-05T19:44:06.699Z,2.90
2022-08-05T19:46:29.550Z,2.05
2022-08-05T19:48:57.981Z,1.88
2022-08-05T19:52:08.589Z,1.55
2022-08-05T19:54:26.844Z,1.35
2022-08-05T19:56:58.464Z,1.17
2022-08-05T20:00:01.230Z,1.13
2022-08-05T20:02:12.882Z,1.13
2022-08-05T20:04:43.149Z,1.20
2022-08-05T20:07:13.453Z,1.38
2022-08-05T20:09:54.567Z,0.95
2022-08-05T20:14:52.479Z,1.20
2022-08-05T20:17:19.582Z,1.10
2022-08-05T20:19:50.507Z,1.33
2022-08-05T20:22:17.212Z,1.25
2022-08-05T20:24:48.659Z,1.23
2022-08-05T20:27:15.929Z,1.42
2022-08-05T20:29:42.804Z,1.40
2022-08-05T20:32:25.281Z,1.55
2022-08-05T20:34:52.183Z,1.15
2022-08-05T20:38:05.519Z,1.88
2022-08-05T20:40:12.445Z,1.33
2022-08-05T20:42:39.952Z,1.10
2022-08-05T20:45:10.723Z,1.30
2022-08-05T20:47:40.053Z,1.52
2022-08-05T20:50:08.664Z,1.88
2022-08-05T20:52:39.165Z,2.72
2022-08-05T20:55:56.801Z,2.55
2022-08-05T20:57:57.145Z,2.10
2022-08-05T21:00:41.591Z,1.60
2022-08-05T21:03:10.965Z,1.38
2022-08-05T21:05:53.552Z,1.20
2022-08-05T21:08:26.670Z,1.27
2022-08-05T21:11:01.301Z,0.98
2022-08-05T21:13:56.479Z,1.02
2022-08-05T21:16:29.849Z,0.77
2022-08-05T21:19:01.128Z,1.17
2022-08-05T21:21:44.589Z,0.85
2022-08-05T21:24:15.893Z,0.93
2022-08-05T21:26:50.575Z,0.70
2022-08-05T21:29:23.480Z,0.90
2022-08-05T21:31:53.602Z,1.00
2022-08-05T21:34:20.926Z,1.25
2022-08-05T21:36:49.280Z,0.73
2022-08-05T21:39:16.792Z,0.90
2022-08-05T21:41:52.787Z,1.25
2022-08-05T21:44:28.351Z,1.20
2022-08-05T21:46:55.637Z,1.10
2022-08-05T21:49:48.587Z,0.70
2022-08-05T21:52:21.759Z,0.80
2022-08-05T21:54:55.197Z,1.00
2022-08-05T21:57:32.679Z,0.82
2022-08-05T22:00:11.191Z,0.93
2022-08-05T22:02:42.641Z,1.02
2022-08-05T22:05:10.462Z,0.88
2022-08-05T22:07:39.909Z,1.33
2022-08-05T22:10:28.054Z,0.95
2022-08-05T22:12:57.714Z,0.80
2022-08-05T22:16:01.874Z,0.85
2022-08-05T22:18:19.651Z,0.95
2022-08-05T22:20:52.544Z,0.70
2022-08-05T22:24:02.056Z,0.80
2022-08-05T22:26:43.157Z,1.15
2022-08-05T22:29:18.970Z,1.08
2022-08-05T22:31:55.145Z,0.85
2022-08-05T22:34:28.676Z,0.75
2022-08-05T22:36:58.285Z,1.42
2022-08-05T22:39:28.589Z,0.75
2022-08-05T22:42:09.647Z,0.95
2022-08-05T22:44:42.510Z,0.95
2022-08-05T22:47:29.365Z,0.60
2022-08-05T22:50:19.514Z,0.70
2022-08-05T22:52:46.345Z,0.80
2022-08-05T22:55:19.197Z,0.95
2022-08-05T22:57:47.278Z,0.55
2022-08-05T23:00:20.821Z,0.77
2022-08-05T23:02:49.096Z,0.80
2022-08-05T23:05:16.901Z,0.90
2022-08-05T23:07:48.838Z,1.02
2022-08-05T23:10:19.843Z,0.88
2022-08-05T23:12:47.170Z,0.70
2022-08-05T23:15:21.772Z,0.98
2022-08-05T23:18:00.551Z,0.85
2022-08-05T23:22:56.651Z,0.80
2022-08-05T23:25:52.255Z,0.75
2022-08-05T23:28:13.092Z,0.80
2022-08-05T23:30:53.273Z,0.90
2022-08-05T23:34:02.721Z,1.00
2022-08-05T23:36:13.549Z,0.85
2022-08-05T23:38:41.098Z,0.60
2022-08-05T23:44:04.737Z,0.85
2022-08-05T23:46:26.499Z,0.77
2022-08-05T23:49:00.895Z,0.60
2022-08-05T23:51:53.743Z,0.77
2022-08-05T23:54:25.949Z,0.77
2022-08-05T23:56:54.316Z,0.98
2022-08-05T23:59:21.903Z,0.80
